sensor_id;sensor_type;location;lat;lon;timestamp;P1;durP1;ratioP1;P2;durP2;ratioP2
49890;SDS011;35780;55.568;37.492;2022-09-12T00:01:16;14.65;;;8.30;;
49890;SDS011;35780;55.568;37.492;2022-09-12T00:03:46;15.15;;;7.43;;
49890;SDS011;35780;55.568;37.492;2022-09-12T00:06:16;21.40;;;8.43;;
49890;SDS011;35780;55.568;37.492;2022-09-12T00:08:43;12.13;;;7.85;;
49890;SDS011;35780;55.568;37.492;2022-09-12T00:11:09;11.18;;;7.32;;
49890;SDS011;35780;55.568;37.492;2022-09-12T00:13:36;10.73;;;7.68;;
49890;SDS011;35780;55.568;37.492;2022-09-12T00:16:03;12.05;;;7.20;;
49890;SDS011;35780;55.568;37.492;2022-09-12T00:18:29;12.50;;;7.15;;
49890;SDS011;35780;55.568;37.492;2022-09-12T00:20:56;10.88;;;6.90;;
49890;SDS011;35780;55.568;37.492;2022-09-12T00:23:21;11.65;;;7.28;;
49890;SDS011;35780;55.568;37.492;2022-09-12T00:25:47;12.18;;;6.97;;
49890;SDS011;35780;55.568;37.492;2022-09-12T00:28:13;11.88;;;6.88;;
49890;SDS011;35780;55.568;37.492;2022-09-12T00:30:43;11.93;;;7.13;;
49890;SDS011;35780;55.568;37.492;2022-09-12T00:33:11;11.85;;;7.78;;
49890;SDS011;35780;55.568;37.492;2022-09-12T00:35:43;10.73;;;6.65;;
49890;SDS011;35780;55.568;37.492;2022-09-12T00:38:10;12.48;;;6.95;;
49890;SDS011;35780;55.568;37.492;2022-09-12T00:40:36;9.32;;;6.18;;
49890;SDS011;35780;55.568;37.492;2022-09-12T00:43:02;9.95;;;6.13;;
49890;SDS011;35780;55.568;37.492;2022-09-12T00:45:28;10.60;;;6.53;;
49890;SDS011;35780;55.568;37.492;2022-09-12T00:47:55;9.90;;;6.35;;
49890;SDS011;35780;55.568;37.492;2022-09-12T00:50:23;8.98;;;6.40;;
49890;SDS011;35780;55.568;37.492;2022-09-12T00:52:53;9.80;;;6.35;;
49890;SDS011;35780;55.568;37.492;2022-09-12T00:55:55;9.95;;;6.68;;
49890;SDS011;35780;55.568;37.492;2022-09-12T00:58:21;11.18;;;6.35;;
49890;SDS011;35780;55.568;37.492;2022-09-12T01:00:48;8.65;;;6.35;;
49890;SDS011;35780;55.568;37.492;2022-09-12T01:03:15;7.97;;;5.88;;
49890;SDS011;35780;55.568;37.492;2022-09-12T01:08:32;15.32;;;6.63;;
49890;SDS011;35780;55.568;37.492;2022-09-12T01:11:01;12.20;;;6.63;;
49890;SDS011;35780;55.568;37.492;2022-09-12T01:13:27;10.80;;;7.05;;
49890;SDS011;35780;55.568;37.492;2022-09-12T01:15:53;14.48;;;6.35;;
49890;SDS011;35780;55.568;37.492;2022-09-12T01:18:23;11.07;;;7.15;;
49890;SDS011;35780;55.568;37.492;2022-09-12T01:31:53;9.25;;;6.18;;
49890;SDS011;35780;55.568;37.492;2022-09-12T01:50:36;15.23;;;8.32;;
49890;SDS011;35780;55.568;37.492;2022-09-12T01:53:07;14.30;;;8.80;;
49890;SDS011;35780;55.568;37.492;2022-09-12T01:55:59;18.88;;;8.98;;
49890;SDS011;35780;55.568;37.492;2022-09-12T01:58:29;16.85;;;9.32;;
49890;SDS011;35780;55.568;37.492;2022-09-12T02:01:06;11.63;;;8.10;;
49890;SDS011;35780;55.568;37.492;2022-09-12T02:06:11;12.25;;;8.45;;
49890;SDS011;35780;55.568;37.492;2022-09-12T02:08:50;13.35;;;8.35;;
49890;SDS011;35780;55.568;37.492;2022-09-12T02:11:18;14.82;;;8.77;;
49890;SDS011;35780;55.568;37.492;2022-09-12T02:14:01;19.40;;;9.68;;
49890;SDS011;35780;55.568;37.492;2022-09-12T02:16:42;15.35;;;9.57;;
49890;SDS011;35780;55.568;37.492;2022-09-12T02:19:14;12.10;;;9.05;;
49890;SDS011;35780;55.568;37.492;2022-09-12T02:21:44;15.38;;;9.05;;
49890;SDS011;35780;55.568;37.492;2022-09-12T02:24:19;14.85;;;8.65;;
49890;SDS011;35780;55.568;37.492;2022-09-12T02:26:47;14.70;;;8.57;;
49890;SDS011;35780;55.568;37.492;2022-09-12T02:29:15;16.83;;;10.52;;
49890;SDS011;35780;55.568;37.492;2022-09-12T02:34:54;16.60;;;9.32;;
49890;SDS011;35780;55.568;37.492;2022-09-12T02:39:37;13.43;;;8.52;;
49890;SDS011;35780;55.568;37.492;2022-09-12T02:42:03;15.68;;;9.68;;
49890;SDS011;35780;55.568;37.492;2022-09-12T02:44:30;16.95;;;10.25;;
49890;SDS011;35780;55.568;37.492;2022-09-12T02:47:01;14.77;;;10.20;;
49890;SDS011;35780;55.568;37.492;2022-09-12T02:49:48;14.43;;;9.75;;
49890;SDS011;35780;55.568;37.492;2022-09-12T02:52:14;13.38;;;9.48;;
49890;SDS011;35780;55.568;37.492;2022-09-12T02:54:39;15.60;;;9.75;;
49890;SDS011;35780;55.568;37.492;2022-09-12T02:57:14;15.20;;;9.65;;
49890;SDS011;35780;55.568;37.492;2022-09-12T02:59:41;17.92;;;10.55;;
49890;SDS011;35780;55.568;37.492;2022-09-12T03:07:55;13.45;;;9.73;;
49890;SDS011;35780;55.568;37.492;2022-09-12T03:24:42;17.40;;;11.32;;
49890;SDS011;35780;55.568;37.492;2022-09-12T03:27:24;26.57;;;13.50;;
49890;SDS011;35780;55.568;37.492;2022-09-12T03:29:53;17.50;;;10.48;;
49890;SDS011;35780;55.568;37.492;2022-09-12T03:32:20;15.40;;;10.07;;
49890;SDS011;35780;55.568;37.492;2022-09-12T03:35:04;17.38;;;11.55;;
49890;SDS011;35780;55.568;37.492;2022-09-12T03:37:30;15.95;;;10.85;;
49890;SDS011;35780;55.568;37.492;2022-09-12T03:39:55;16.60;;;12.35;;
49890;SDS011;35780;55.568;37.492;2022-09-12T03:42:21;20.45;;;12.38;;
49890;SDS011;35780;55.568;37.492;2022-09-12T03:44:46;19.48;;;12.05;;
49890;SDS011;35780;55.568;37.492;2022-09-12T03:47:12;16.90;;;10.98;;
49890;SDS011;35780;55.568;37.492;2022-09-12T03:49:37;17.90;;;12.45;;
49890;SDS011;35780;55.568;37.492;2022-09-12T03:52:03;22.52;;;11.60;;
49890;SDS011;35780;55.568;37.492;2022-09-12T03:54:29;22.15;;;11.57;;
49890;SDS011;35780;55.568;37.492;2022-09-12T03:56:54;19.98;;;11.07;;
49890;SDS011;35780;55.568;37.492;2022-09-12T03:59:20;15.82;;;12.20;;
49890;SDS011;35780;55.568;37.492;2022-09-12T04:01:45;18.02;;;11.80;;
49890;SDS011;35780;55.568;37.492;2022-09-12T04:04:11;19.50;;;12.55;;
49890;SDS011;35780;55.568;37.492;2022-09-12T04:06:36;19.52;;;11.93;;
49890;SDS011;35780;55.568;37.492;2022-09-12T04:09:02;19.30;;;12.00;;
49890;SDS011;35780;55.568;37.492;2022-09-12T04:11:28;16.70;;;10.93;;
49890;SDS011;35780;55.568;37.492;2022-09-12T04:13:53;18.10;;;11.00;;
49890;SDS011;35780;55.568;37.492;2022-09-12T04:16:19;14.48;;;10.00;;
49890;SDS011;35780;55.568;37.492;2022-09-12T04:18:44;18.60;;;10.88;;
49890;SDS011;35780;55.568;37.492;2022-09-12T04:21:13;16.55;;;10.10;;
49890;SDS011;35780;55.568;37.492;2022-09-12T04:23:41;13.65;;;8.52;;
49890;SDS011;35780;55.568;37.492;2022-09-12T04:26:07;13.00;;;7.68;;
49890;SDS011;35780;55.568;37.492;2022-09-12T04:28:33;14.98;;;7.47;;
49890;SDS011;35780;55.568;37.492;2022-09-12T04:31:01;14.32;;;8.65;;
49890;SDS011;35780;55.568;37.492;2022-09-12T04:33:30;15.48;;;8.65;;
49890;SDS011;35780;55.568;37.492;2022-09-12T04:35:55;13.63;;;8.38;;
49890;SDS011;35780;55.568;37.492;2022-09-12T04:38:21;11.68;;;6.70;;
49890;SDS011;35780;55.568;37.492;2022-09-12T04:40:46;15.95;;;7.65;;
49890;SDS011;35780;55.568;37.492;2022-09-12T04:43:12;15.50;;;9.15;;
49890;SDS011;35780;55.568;37.492;2022-09-12T04:45:37;14.05;;;9.20;;
49890;SDS011;35780;55.568;37.492;2022-09-12T04:48:03;15.80;;;8.88;;
49890;SDS011;35780;55.568;37.492;2022-09-12T04:50:29;10.60;;;6.93;;
49890;SDS011;35780;55.568;37.492;2022-09-12T04:52:54;12.57;;;7.40;;
49890;SDS011;35780;55.568;37.492;2022-09-12T04:55:20;12.98;;;8.32;;
49890;SDS011;35780;55.568;37.492;2022-09-12T04:57:46;14.07;;;8.40;;
49890;SDS011;35780;55.568;37.492;2022-09-12T05:00:12;13.93;;;7.95;;
49890;SDS011;35780;55.568;37.492;2022-09-12T05:02:42;11.35;;;7.90;;
49890;SDS011;35780;55.568;37.492;2022-09-12T05:05:08;12.55;;;7.43;;
49890;SDS011;35780;55.568;37.492;2022-09-12T05:07:34;18.08;;;8.52;;
49890;SDS011;35780;55.568;37.492;2022-09-12T05:10:00;13.80;;;9.68;;
49890;SDS011;35780;55.568;37.492;2022-09-12T05:12:29;17.15;;;9.60;;
49890;SDS011;35780;55.568;37.492;2022-09-12T05:14:55;14.55;;;9.73;;
49890;SDS011;35780;55.568;37.492;2022-09-12T05:17:21;12.30;;;8.90;;
49890;SDS011;35780;55.568;37.492;2022-09-12T05:19:46;16.38;;;8.98;;
49890;SDS011;35780;55.568;37.492;2022-09-12T05:22:12;14.05;;;8.45;;
49890;SDS011;35780;55.568;37.492;2022-09-12T05:24:38;12.73;;;9.15;;
49890;SDS011;35780;55.568;37.492;2022-09-12T05:27:07;11.68;;;8.23;;
49890;SDS011;35780;55.568;37.492;2022-09-12T05:29:32;12.18;;;8.77;;
49890;SDS011;35780;55.568;37.492;2022-09-12T05:31:58;17.48;;;8.35;;
49890;SDS011;35780;55.568;37.492;2022-09-12T05:34:23;13.60;;;7.88;;
49890;SDS011;35780;55.568;37.492;2022-09-12T05:36:49;11.00;;;6.53;;
49890;SDS011;35780;55.568;37.492;2022-09-12T05:39:14;15.40;;;8.52;;
49890;SDS011;35780;55.568;37.492;2022-09-12T05:41:40;13.70;;;8.20;;
49890;SDS011;35780;55.568;37.492;2022-09-12T05:44:09;10.77;;;7.10;;
49890;SDS011;35780;55.568;37.492;2022-09-12T05:46:37;11.10;;;7.03;;
49890;SDS011;35780;55.568;37.492;2022-09-12T05:49:04;13.45;;;7.88;;
49890;SDS011;35780;55.568;37.492;2022-09-12T05:51:32;11.50;;;6.70;;
49890;SDS011;35780;55.568;37.492;2022-09-12T05:53:59;13.13;;;7.70;;
49890;SDS011;35780;55.568;37.492;2022-09-12T05:56:28;12.73;;;7.97;;
49890;SDS011;35780;55.568;37.492;2022-09-12T05:58:56;12.23;;;8.43;;
49890;SDS011;35780;55.568;37.492;2022-09-12T06:01:26;12.00;;;7.55;;
49890;SDS011;35780;55.568;37.492;2022-09-12T06:03:53;12.13;;;8.18;;
49890;SDS011;35780;55.568;37.492;2022-09-12T06:06:21;11.05;;;8.15;;
49890;SDS011;35780;55.568;37.492;2022-09-12T06:08:49;15.18;;;8.65;;
49890;SDS011;35780;55.568;37.492;2022-09-12T06:11:18;13.93;;;8.55;;
49890;SDS011;35780;55.568;37.492;2022-09-12T06:13:48;15.15;;;9.80;;
49890;SDS011;35780;55.568;37.492;2022-09-12T06:16:19;15.45;;;8.45;;
49890;SDS011;35780;55.568;37.492;2022-09-12T06:18:51;13.10;;;7.78;;
49890;SDS011;35780;55.568;37.492;2022-09-12T06:21:20;11.63;;;7.88;;
49890;SDS011;35780;55.568;37.492;2022-09-12T06:23:47;12.02;;;5.53;;
49890;SDS011;35780;55.568;37.492;2022-09-12T06:26:14;14.07;;;9.10;;
49890;SDS011;35780;55.568;37.492;2022-09-12T06:28:41;14.77;;;8.93;;
49890;SDS011;35780;55.568;37.492;2022-09-12T06:31:22;14.05;;;8.70;;
49890;SDS011;35780;55.568;37.492;2022-09-12T06:33:50;15.15;;;9.90;;
49890;SDS011;35780;55.568;37.492;2022-09-12T06:38:44;13.20;;;8.85;;
49890;SDS011;35780;55.568;37.492;2022-09-12T06:41:10;12.40;;;7.32;;
49890;SDS011;35780;55.568;37.492;2022-09-12T06:43:36;12.43;;;7.88;;
49890;SDS011;35780;55.568;37.492;2022-09-12T06:46:02;13.30;;;8.40;;
49890;SDS011;35780;55.568;37.492;2022-09-12T06:48:28;14.75;;;8.88;;
49890;SDS011;35780;55.568;37.492;2022-09-12T06:50:57;13.25;;;8.57;;
49890;SDS011;35780;55.568;37.492;2022-09-12T06:53:44;12.48;;;6.82;;
49890;SDS011;35780;55.568;37.492;2022-09-12T06:56:11;11.60;;;8.15;;
49890;SDS011;35780;55.568;37.492;2022-09-12T06:58:39;12.38;;;7.75;;
49890;SDS011;35780;55.568;37.492;2022-09-12T07:01:08;13.27;;;8.57;;
49890;SDS011;35780;55.568;37.492;2022-09-12T07:03:35;12.45;;;9.23;;
49890;SDS011;35780;55.568;37.492;2022-09-12T07:06:05;10.65;;;7.63;;
49890;SDS011;35780;55.568;37.492;2022-09-12T07:08:32;13.07;;;7.60;;
49890;SDS011;35780;55.568;37.492;2022-09-12T07:10:59;11.25;;;8.48;;
49890;SDS011;35780;55.568;37.492;2022-09-12T07:13:32;8.90;;;5.30;;
49890;SDS011;35780;55.568;37.492;2022-09-12T07:16:00;11.40;;;6.47;;
49890;SDS011;35780;55.568;37.492;2022-09-12T07:18:26;11.48;;;6.25;;
49890;SDS011;35780;55.568;37.492;2022-09-12T07:20:53;10.88;;;7.05;;
49890;SDS011;35780;55.568;37.492;2022-09-12T07:23:18;11.48;;;6.40;;
49890;SDS011;35780;55.568;37.492;2022-09-12T07:25:50;8.55;;;5.15;;
49890;SDS011;35780;55.568;37.492;2022-09-12T07:28:17;10.48;;;6.75;;
49890;SDS011;35780;55.568;37.492;2022-09-12T07:30:43;8.98;;;5.57;;
49890;SDS011;35780;55.568;37.492;2022-09-12T07:33:08;8.30;;;5.40;;
49890;SDS011;35780;55.568;37.492;2022-09-12T07:35:34;6.22;;;3.55;;
49890;SDS011;35780;55.568;37.492;2022-09-12T07:38:00;8.80;;;3.17;;
49890;SDS011;35780;55.568;37.492;2022-09-12T07:40:26;12.75;;;4.25;;
49890;SDS011;35780;55.568;37.492;2022-09-12T07:42:51;8.07;;;4.95;;
49890;SDS011;35780;55.568;37.492;2022-09-12T07:45:17;11.60;;;6.10;;
49890;SDS011;35780;55.568;37.492;2022-09-12T07:47:42;7.13;;;4.95;;
49890;SDS011;35780;55.568;37.492;2022-09-12T07:50:08;7.50;;;4.57;;
49890;SDS011;35780;55.568;37.492;2022-09-12T07:52:34;8.20;;;4.60;;
49890;SDS011;35780;55.568;37.492;2022-09-12T07:54:59;10.73;;;5.00;;
49890;SDS011;35780;55.568;37.492;2022-09-12T07:57:25;7.78;;;4.80;;
49890;SDS011;35780;55.568;37.492;2022-09-12T07:59:50;6.38;;;3.50;;
49890;SDS011;35780;55.568;37.492;2022-09-12T08:02:16;11.50;;;6.00;;
49890;SDS011;35780;55.568;37.492;2022-09-12T08:04:41;7.30;;;4.90;;
49890;SDS011;35780;55.568;37.492;2022-09-12T08:07:08;11.85;;;4.05;;
49890;SDS011;35780;55.568;37.492;2022-09-12T08:09:34;7.18;;;4.95;;
49890;SDS011;35780;55.568;37.492;2022-09-12T08:12:00;7.93;;;4.70;;
49890;SDS011;35780;55.568;37.492;2022-09-12T08:14:26;8.93;;;4.20;;
49890;SDS011;35780;55.568;37.492;2022-09-12T08:16:52;10.20;;;4.90;;
49890;SDS011;35780;55.568;37.492;2022-09-12T08:19:17;8.48;;;5.93;;
49890;SDS011;35780;55.568;37.492;2022-09-12T08:21:43;9.07;;;6.07;;
49890;SDS011;35780;55.568;37.492;2022-09-12T08:24:09;7.60;;;5.47;;
49890;SDS011;35780;55.568;37.492;2022-09-12T08:26:36;9.63;;;6.32;;
49890;SDS011;35780;55.568;37.492;2022-09-12T08:29:02;9.82;;;5.53;;
49890;SDS011;35780;55.568;37.492;2022-09-12T08:31:28;8.90;;;6.50;;
49890;SDS011;35780;55.568;37.492;2022-09-12T08:34:00;10.20;;;5.78;;
49890;SDS011;35780;55.568;37.492;2022-09-12T08:36:26;11.77;;;5.32;;
49890;SDS011;35780;55.568;37.492;2022-09-12T08:38:57;11.05;;;5.80;;
49890;SDS011;35780;55.568;37.492;2022-09-12T08:41:31;12.43;;;7.07;;
49890;SDS011;35780;55.568;37.492;2022-09-12T08:47:11;12.82;;;7.70;;
49890;SDS011;35780;55.568;37.492;2022-09-12T08:55:35;9.27;;;6.85;;
49890;SDS011;35780;55.568;37.492;2022-09-12T08:58:09;10.70;;;6.90;;
49890;SDS011;35780;55.568;37.492;2022-09-12T09:06:26;13.38;;;6.82;;
49890;SDS011;35780;55.568;37.492;2022-09-12T09:17:32;11.07;;;7.85;;
49890;SDS011;35780;55.568;37.492;2022-09-12T09:20:03;11.88;;;8.52;;
49890;SDS011;35780;55.568;37.492;2022-09-12T09:22:34;15.38;;;9.15;;
49890;SDS011;35780;55.568;37.492;2022-09-12T09:25:04;14.70;;;8.07;;
49890;SDS011;35780;55.568;37.492;2022-09-12T09:27:36;16.23;;;9.35;;
49890;SDS011;35780;55.568;37.492;2022-09-12T09:30:17;12.60;;;8.55;;
49890;SDS011;35780;55.568;37.492;2022-09-12T09:32:48;13.77;;;8.60;;
49890;SDS011;35780;55.568;37.492;2022-09-12T09:36:04;13.32;;;7.20;;
49890;SDS011;35780;55.568;37.492;2022-09-12T09:38:25;20.00;;;9.63;;
49890;SDS011;35780;55.568;37.492;2022-09-12T09:43:34;17.02;;;9.57;;
49890;SDS011;35780;55.568;37.492;2022-09-12T09:46:01;12.90;;;7.28;;
49890;SDS011;35780;55.568;37.492;2022-09-12T09:48:29;14.50;;;8.70;;
49890;SDS011;35780;55.568;37.492;2022-09-12T09:50:56;22.83;;;11.27;;
49890;SDS011;35780;55.568;37.492;2022-09-12T09:56:22;21.15;;;11.05;;
49890;SDS011;35780;55.568;37.492;2022-09-12T09:58:50;11.45;;;8.15;;
49890;SDS011;35780;55.568;37.492;2022-09-12T10:01:16;20.63;;;9.43;;
49890;SDS011;35780;55.568;37.492;2022-09-12T10:03:53;15.63;;;10.20;;
49890;SDS011;35780;55.568;37.492;2022-09-12T10:08:45;25.08;;;12.70;;
49890;SDS011;35780;55.568;37.492;2022-09-12T10:13:41;20.23;;;11.70;;
49890;SDS011;35780;55.568;37.492;2022-09-12T10:16:29;21.67;;;11.63;;
49890;SDS011;35780;55.568;37.492;2022-09-12T10:18:56;21.33;;;13.13;;
49890;SDS011;35780;55.568;37.492;2022-09-12T10:24:25;18.05;;;12.90;;
49890;SDS011;35780;55.568;37.492;2022-09-12T10:27:35;19.00;;;11.85;;
49890;SDS011;35780;55.568;37.492;2022-09-12T10:32:24;21.88;;;12.52;;
49890;SDS011;35780;55.568;37.492;2022-09-12T10:34:55;29.10;;;13.43;;
49890;SDS011;35780;55.568;37.492;2022-09-12T10:40:02;20.75;;;12.18;;
49890;SDS011;35780;55.568;37.492;2022-09-12T10:47:57;27.30;;;14.38;;
49890;SDS011;35780;55.568;37.492;2022-09-12T10:50:28;23.58;;;14.52;;
49890;SDS011;35780;55.568;37.492;2022-09-12T10:53:12;23.10;;;14.02;;
49890;SDS011;35780;55.568;37.492;2022-09-12T10:55:37;25.52;;;14.10;;
49890;SDS011;35780;55.568;37.492;2022-09-12T10:58:19;22.33;;;12.45;;
49890;SDS011;35780;55.568;37.492;2022-09-12T11:04:23;25.35;;;14.60;;
49890;SDS011;35780;55.568;37.492;2022-09-12T11:09:53;17.70;;;12.57;;
49890;SDS011;35780;55.568;37.492;2022-09-12T11:12:26;25.20;;;15.13;;
49890;SDS011;35780;55.568;37.492;2022-09-12T11:26:07;27.02;;;15.35;;
49890;SDS011;35780;55.568;37.492;2022-09-12T11:34:06;28.50;;;17.77;;
49890;SDS011;35780;55.568;37.492;2022-09-12T11:39:58;30.42;;;17.00;;
49890;SDS011;35780;55.568;37.492;2022-09-12T11:42:03;30.77;;;17.58;;
49890;SDS011;35780;55.568;37.492;2022-09-12T11:47:06;36.17;;;18.50;;
49890;SDS011;35780;55.568;37.492;2022-09-12T11:49:40;26.80;;;16.42;;
49890;SDS011;35780;55.568;37.492;2022-09-12T11:57:27;30.70;;;16.20;;
49890;SDS011;35780;55.568;37.492;2022-09-12T12:02:42;32.92;;;14.77;;
49890;SDS011;35780;55.568;37.492;2022-09-12T12:05:19;29.17;;;15.40;;
49890;SDS011;35780;55.568;37.492;2022-09-12T12:07:53;30.52;;;17.65;;
49890;SDS011;35780;55.568;37.492;2022-09-12T12:12:57;31.33;;;16.48;;
49890;SDS011;35780;55.568;37.492;2022-09-12T12:15:23;31.30;;;17.02;;
49890;SDS011;35780;55.568;37.492;2022-09-12T12:18:00;34.35;;;16.38;;
49890;SDS011;35780;55.568;37.492;2022-09-12T12:20:29;28.73;;;16.38;;
49890;SDS011;35780;55.568;37.492;2022-09-12T12:22:54;28.00;;;15.45;;
49890;SDS011;35780;55.568;37.492;2022-09-12T12:25:22;31.50;;;16.25;;
49890;SDS011;35780;55.568;37.492;2022-09-12T12:27:54;32.20;;;18.77;;
49890;SDS011;35780;55.568;37.492;2022-09-12T12:38:25;26.77;;;16.52;;
49890;SDS011;35780;55.568;37.492;2022-09-12T12:40:53;23.92;;;13.68;;
49890;SDS011;35780;55.568;37.492;2022-09-12T12:43:41;28.55;;;16.80;;
49890;SDS011;35780;55.568;37.492;2022-09-12T12:46:20;23.30;;;12.38;;
49890;SDS011;35780;55.568;37.492;2022-09-12T12:51:26;27.17;;;14.98;;
49890;SDS011;35780;55.568;37.492;2022-09-12T12:53:55;30.42;;;16.42;;
49890;SDS011;35780;55.568;37.492;2022-09-12T12:56:35;27.88;;;15.23;;
49890;SDS011;35780;55.568;37.492;2022-09-12T12:59:05;29.42;;;12.95;;
49890;SDS011;35780;55.568;37.492;2022-09-12T13:01:43;26.27;;;13.93;;
49890;SDS011;35780;55.568;37.492;2022-09-12T13:04:14;24.02;;;14.60;;
49890;SDS011;35780;55.568;37.492;2022-09-12T13:06:43;28.95;;;15.88;;
49890;SDS011;35780;55.568;37.492;2022-09-12T13:11:46;31.70;;;18.00;;
49890;SDS011;35780;55.568;37.492;2022-09-12T13:14:35;27.13;;;14.45;;
49890;SDS011;35780;55.568;37.492;2022-09-12T13:17:13;34.25;;;15.40;;
49890;SDS011;35780;55.568;37.492;2022-09-12T13:19:52;29.60;;;16.45;;
49890;SDS011;35780;55.568;37.492;2022-09-12T13:22:23;24.05;;;14.80;;
49890;SDS011;35780;55.568;37.492;2022-09-12T13:24:49;30.48;;;15.48;;
49890;SDS011;35780;55.568;37.492;2022-09-12T13:27:18;28.55;;;15.80;;
49890;SDS011;35780;55.568;37.492;2022-09-12T13:29:45;29.10;;;16.15;;
49890;SDS011;35780;55.568;37.492;2022-09-12T13:32:11;34.00;;;16.80;;
49890;SDS011;35780;55.568;37.492;2022-09-12T13:34:40;27.52;;;14.82;;
49890;SDS011;35780;55.568;37.492;2022-09-12T13:45:51;27.73;;;14.80;;
49890;SDS011;35780;55.568;37.492;2022-09-12T13:48:17;19.55;;;12.80;;
49890;SDS011;35780;55.568;37.492;2022-09-12T13:50:48;27.20;;;14.50;;
49890;SDS011;35780;55.568;37.492;2022-09-12T13:53:15;25.92;;;14.75;;
49890;SDS011;35780;55.568;37.492;2022-09-12T13:55:44;23.05;;;12.15;;
49890;SDS011;35780;55.568;37.492;2022-09-12T13:58:15;24.08;;;12.70;;
49890;SDS011;35780;55.568;37.492;2022-09-12T14:00:46;17.58;;;11.20;;
49890;SDS011;35780;55.568;37.492;2022-09-12T14:03:24;16.90;;;10.20;;
49890;SDS011;35780;55.568;37.492;2022-09-12T14:06:16;18.58;;;11.13;;
49890;SDS011;35780;55.568;37.492;2022-09-12T14:08:43;18.75;;;10.02;;
49890;SDS011;35780;55.568;37.492;2022-09-12T14:11:11;21.92;;;11.40;;
49890;SDS011;35780;55.568;37.492;2022-09-12T14:16:09;20.42;;;10.10;;
49890;SDS011;35780;55.568;37.492;2022-09-12T14:18:36;13.90;;;8.57;;
49890;SDS011;35780;55.568;37.492;2022-09-12T14:21:09;20.80;;;12.95;;
49890;SDS011;35780;55.568;37.492;2022-09-12T14:23:40;21.30;;;11.90;;
49890;SDS011;35780;55.568;37.492;2022-09-12T14:26:08;20.45;;;12.77;;
49890;SDS011;35780;55.568;37.492;2022-09-12T14:28:38;22.23;;;11.15;;
49890;SDS011;35780;55.568;37.492;2022-09-12T14:33:47;18.88;;;10.55;;
49890;SDS011;35780;55.568;37.492;2022-09-12T14:39:00;20.65;;;10.75;;
49890;SDS011;35780;55.568;37.492;2022-09-12T14:41:28;18.17;;;10.27;;
49890;SDS011;35780;55.568;37.492;2022-09-12T14:43:58;19.52;;;11.43;;
49890;SDS011;35780;55.568;37.492;2022-09-12T14:46:32;22.95;;;11.98;;
49890;SDS011;35780;55.568;37.492;2022-09-12T14:49:00;17.38;;;9.90;;
49890;SDS011;35780;55.568;37.492;2022-09-12T15:02:10;18.37;;;9.50;;
49890;SDS011;35780;55.568;37.492;2022-09-12T15:04:41;17.15;;;8.38;;
49890;SDS011;35780;55.568;37.492;2022-09-12T15:07:29;18.55;;;8.90;;
49890;SDS011;35780;55.568;37.492;2022-09-12T15:09:57;12.15;;;7.80;;
49890;SDS011;35780;55.568;37.492;2022-09-12T15:12:24;12.13;;;7.25;;
49890;SDS011;35780;55.568;37.492;2022-09-12T15:14:50;15.98;;;7.70;;
49890;SDS011;35780;55.568;37.492;2022-09-12T15:17:15;16.33;;;7.22;;
49890;SDS011;35780;55.568;37.492;2022-09-12T15:19:41;14.40;;;7.95;;
49890;SDS011;35780;55.568;37.492;2022-09-12T15:22:09;12.60;;;7.50;;
49890;SDS011;35780;55.568;37.492;2022-09-12T15:24:35;8.65;;;6.63;;
49890;SDS011;35780;55.568;37.492;2022-09-12T15:27:10;14.77;;;7.50;;
49890;SDS011;35780;55.568;37.492;2022-09-12T15:29:37;9.55;;;5.70;;
49890;SDS011;35780;55.568;37.492;2022-09-12T15:32:03;13.95;;;7.30;;
49890;SDS011;35780;55.568;37.492;2022-09-12T15:34:30;17.35;;;6.80;;
49890;SDS011;35780;55.568;37.492;2022-09-12T15:36:56;12.93;;;6.50;;
49890;SDS011;35780;55.568;37.492;2022-09-12T15:39:22;10.85;;;5.75;;
49890;SDS011;35780;55.568;37.492;2022-09-12T15:41:47;11.05;;;5.70;;
49890;SDS011;35780;55.568;37.492;2022-09-12T15:44:13;10.07;;;6.50;;
49890;SDS011;35780;55.568;37.492;2022-09-12T15:46:39;10.07;;;5.78;;
49890;SDS011;35780;55.568;37.492;2022-09-12T15:49:05;10.85;;;6.70;;
49890;SDS011;35780;55.568;37.492;2022-09-12T15:51:31;12.57;;;6.18;;
49890;SDS011;35780;55.568;37.492;2022-09-12T15:53:57;12.18;;;6.65;;
49890;SDS011;35780;55.568;37.492;2022-09-12T15:56:22;14.00;;;5.90;;
49890;SDS011;35780;55.568;37.492;2022-09-12T15:58:48;12.05;;;5.93;;
49890;SDS011;35780;55.568;37.492;2022-09-12T16:01:14;9.75;;;6.15;;
49890;SDS011;35780;55.568;37.492;2022-09-12T16:03:41;11.10;;;7.30;;
49890;SDS011;35780;55.568;37.492;2022-09-12T16:06:06;17.70;;;9.00;;
49890;SDS011;35780;55.568;37.492;2022-09-12T16:08:33;13.55;;;6.85;;
49890;SDS011;35780;55.568;37.492;2022-09-12T16:11:20;9.73;;;6.10;;
49890;SDS011;35780;55.568;37.492;2022-09-12T16:13:46;8.38;;;5.28;;
49890;SDS011;35780;55.568;37.492;2022-09-12T16:16:12;8.73;;;4.90;;
49890;SDS011;35780;55.568;37.492;2022-09-12T16:18:38;6.97;;;4.20;;
49890;SDS011;35780;55.568;37.492;2022-09-12T16:21:04;16.83;;;8.18;;
49890;SDS011;35780;55.568;37.492;2022-09-12T16:23:30;9.35;;;4.65;;
49890;SDS011;35780;55.568;37.492;2022-09-12T16:26:04;7.43;;;4.40;;
49890;SDS011;35780;55.568;37.492;2022-09-12T16:28:30;7.82;;;4.25;;
49890;SDS011;35780;55.568;37.492;2022-09-12T16:30:58;7.10;;;4.65;;
49890;SDS011;35780;55.568;37.492;2022-09-12T16:33:25;6.85;;;4.60;;
49890;SDS011;35780;55.568;37.492;2022-09-12T16:35:51;7.32;;;4.57;;
49890;SDS011;35780;55.568;37.492;2022-09-12T16:38:20;6.38;;;3.97;;
49890;SDS011;35780;55.568;37.492;2022-09-12T16:40:46;8.00;;;4.30;;
49890;SDS011;35780;55.568;37.492;2022-09-12T16:43:11;6.28;;;4.05;;
49890;SDS011;35780;55.568;37.492;2022-09-12T16:45:40;7.57;;;4.30;;
49890;SDS011;35780;55.568;37.492;2022-09-12T16:48:06;7.60;;;3.85;;
49890;SDS011;35780;55.568;37.492;2022-09-12T16:50:31;7.88;;;4.65;;
49890;SDS011;35780;55.568;37.492;2022-09-12T16:52:58;8.02;;;4.70;;
49890;SDS011;35780;55.568;37.492;2022-09-12T16:55:24;8.25;;;3.85;;
49890;SDS011;35780;55.568;37.492;2022-09-12T16:57:50;9.05;;;4.35;;
49890;SDS011;35780;55.568;37.492;2022-09-12T17:00:15;6.32;;;4.30;;
49890;SDS011;35780;55.568;37.492;2022-09-12T17:02:41;7.20;;;4.90;;
49890;SDS011;35780;55.568;37.492;2022-09-12T17:05:06;6.43;;;3.42;;
49890;SDS011;35780;55.568;37.492;2022-09-12T17:07:32;8.88;;;4.63;;
49890;SDS011;35780;55.568;37.492;2022-09-12T17:09:58;9.00;;;4.93;;
49890;SDS011;35780;55.568;37.492;2022-09-12T17:12:24;9.40;;;5.05;;
49890;SDS011;35780;55.568;37.492;2022-09-12T17:14:50;7.07;;;4.93;;
49890;SDS011;35780;55.568;37.492;2022-09-12T17:17:15;12.65;;;5.15;;
49890;SDS011;35780;55.568;37.492;2022-09-12T17:19:41;7.45;;;4.68;;
49890;SDS011;35780;55.568;37.492;2022-09-12T17:22:07;11.27;;;4.88;;
49890;SDS011;35780;55.568;37.492;2022-09-12T17:24:33;13.35;;;5.18;;
49890;SDS011;35780;55.568;37.492;2022-09-12T17:26:59;12.35;;;5.18;;
49890;SDS011;35780;55.568;37.492;2022-09-12T17:29:24;7.13;;;4.75;;
49890;SDS011;35780;55.568;37.492;2022-09-12T17:31:50;8.70;;;5.13;;
49890;SDS011;35780;55.568;37.492;2022-09-12T17:34:16;11.90;;;5.85;;
49890;SDS011;35780;55.568;37.492;2022-09-12T17:36:42;11.52;;;5.45;;
49890;SDS011;35780;55.568;37.492;2022-09-12T17:39:09;9.75;;;4.43;;